createdAt,value
2023-01-03T00:01:31.171Z,38.63
2023-01-03T00:03:59.544Z,39.00
2023-01-03T00:06:29.099Z,37.53
2023-01-03T00:08:58.310Z,41.88
2023-01-03T00:11:48.999Z,42.25
2023-01-03T00:14:20.337Z,42.33
2023-01-03T00:16:51.573Z,42.07
2023-01-03T00:19:19.904Z,38.17
2023-01-03T00:21:46.924Z,34.65
2023-01-03T00:24:14.579Z,34.78
2023-01-03T00:26:41.711Z,30.35
2023-01-03T00:29:09.096Z,30.43
2023-01-03T00:31:36.599Z,28.75
2023-01-03T00:34:04.084Z,31.25
2023-01-03T00:36:31.718Z,29.08
2023-01-03T00:38:58.999Z,27.60
2023-01-03T00:41:26.304Z,24.27
2023-01-03T00:43:53.635Z,25.77
2023-01-03T00:46:21.103Z,22.80
2023-01-03T00:48:48.445Z,25.73
2023-01-03T00:51:21.347Z,23.35
2023-01-03T00:53:51.164Z,22.67
2023-01-03T00:56:21.262Z,23.35
2023-01-03T00:58:49.093Z,22.87
2023-01-03T01:01:20.685Z,22.35
2023-01-03T01:03:54.212Z,22.30
2023-01-03T01:06:24.178Z,22.53
2023-01-03T01:08:53.785Z,21.62
2023-01-03T01:11:21.576Z,21.87
2023-01-03T01:13:49.876Z,22.08
2023-01-03T01:16:22.815Z,21.50
2023-01-03T01:18:53.751Z,21.33
2023-01-03T01:21:25.279Z,21.65
2023-01-03T01:23:53.303Z,21.62
2023-01-03T01:26:25.455Z,21.35
2023-01-03T01:28:53.976Z,20.15
2023-01-03T01:31:23.425Z,19.00
2023-01-03T01:33:51.612Z,19.37
2023-01-03T01:36:30.101Z,17.62
2023-01-03T01:39:04.716Z,18.05
2023-01-03T01:41:52.267Z,18.25
2023-01-03T01:44:52.050Z,16.80
2023-01-03T01:47:24.922Z,17.48
2023-01-03T01:50:15.132Z,16.15
2023-01-03T01:52:51.013Z,16.62
2023-01-03T01:55:22.468Z,16.23
2023-01-03T01:57:49.803Z,16.27
2023-01-03T02:00:16.964Z,16.85
2023-01-03T02:02:46.566Z,17.08
2023-01-03T02:05:15.335Z,15.45
2023-01-03T02:07:43.413Z,15.88
2023-01-03T02:10:11.263Z,15.10
2023-01-03T02:13:11.338Z,14.85
2023-01-03T02:15:56.201Z,15.07
2023-01-03T02:18:29.291Z,13.75
2023-01-03T02:21:19.615Z,14.75
2023-01-03T02:23:58.852Z,14.07
2023-01-03T02:26:44.289Z,14.30
2023-01-03T02:30:00.197Z,14.27
2023-01-03T02:32:39.018Z,14.02
2023-01-03T02:35:13.034Z,14.27
2023-01-03T02:37:55.125Z,14.60
2023-01-03T02:40:56.037Z,14.55
2023-01-03T02:43:36.197Z,14.18
2023-01-03T02:46:13.903Z,13.70
2023-01-03T02:48:55.637Z,15.07
2023-01-03T02:51:44.488Z,13.97
2023-01-03T02:54:16.923Z,14.75
2023-01-03T02:57:04.516Z,14.00
2023-01-03T02:59:58.487Z,13.70
2023-01-03T03:02:32.808Z,13.38
2023-01-03T03:05:02.779Z,13.30
2023-01-03T03:07:34.433Z,13.70
2023-01-03T03:10:23.635Z,13.85
2023-01-03T03:13:13.862Z,13.75
2023-01-03T03:16:01.623Z,13.82
2023-01-03T03:18:58.354Z,13.93
2023-01-03T03:21:50.010Z,13.85
2023-01-03T03:24:40.702Z,14.20
2023-01-03T03:27:30.905Z,14.43
2023-01-03T03:30:01.696Z,13.65
2023-01-03T03:32:31.113Z,15.27
2023-01-03T03:35:02.083Z,14.95
2023-01-03T03:37:31.818Z,14.80
2023-01-03T03:40:23.769Z,14.63
2023-01-03T03:43:18.948Z,14.65
2023-01-03T03:46:05.749Z,14.20
2023-01-03T03:49:19.619Z,13.82
2023-01-03T03:51:49.177Z,14.73
2023-01-03T03:54:22.249Z,13.95
2023-01-03T03:56:58.063Z,14.25
2023-01-03T03:59:27.611Z,14.27
2023-01-03T04:02:00.089Z,15.40
2023-01-03T04:04:35.993Z,16.20
2023-01-03T04:07:03.168Z,14.63
2023-01-03T04:09:35.908Z,13.82
2023-01-03T04:12:03.089Z,14.47
2023-01-03T04:14:30.319Z,15.13
2023-01-03T04:16:57.305Z,15.35
2023-01-03T04:19:24.295Z,15.65
2023-01-03T04:21:51.494Z,15.50
2023-01-03T04:24:20.347Z,15.23
2023-01-03T04:26:49.868Z,15.38
2023-01-03T04:29:16.830Z,13.65
2023-01-03T04:31:43.994Z,14.95
2023-01-03T04:34:11.061Z,13.65
2023-01-03T04:36:37.961Z,14.93
2023-01-03T04:39:04.885Z,14.90
2023-01-03T04:41:31.784Z,13.62
2023-01-03T04:44:02.052Z,15.23
2023-01-03T04:46:34.154Z,15.30
2023-01-03T04:49:02.325Z,14.13
2023-01-03T04:51:29.920Z,16.55
2023-01-03T04:53:58.865Z,15.88
2023-01-03T04:56:31.978Z,15.05
2023-01-03T04:58:59.612Z,13.80
2023-01-03T05:01:26.669Z,15.10
2023-01-03T05:04:01.046Z,16.25
2023-01-03T05:06:28.723Z,13.90
2023-01-03T05:08:56.044Z,15.45
2023-01-03T05:11:23.455Z,14.05
2023-01-03T05:13:50.328Z,14.83
2023-01-03T05:16:17.693Z,14.55
2023-01-03T05:18:45.225Z,14.65
2023-01-03T05:21:36.752Z,15.18
2023-01-03T05:24:23.907Z,20.20
2023-01-03T05:26:52.609Z,17.67
2023-01-03T05:29:21.714Z,16.15
2023-01-03T05:31:48.763Z,15.50
2023-01-03T05:34:16.068Z,16.17
2023-01-03T05:36:43.078Z,18.80
2023-01-03T05:39:10.140Z,19.20
2023-01-03T05:41:55.843Z,18.25
2023-01-03T05:44:23.139Z,15.95
2023-01-03T05:46:50.021Z,16.48
2023-01-03T05:49:17.190Z,14.30
2023-01-03T05:51:44.411Z,17.03
2023-01-03T05:54:14.927Z,16.25
2023-01-03T05:56:42.137Z,16.92
2023-01-03T05:59:10.683Z,13.25
2023-01-03T06:01:37.770Z,14.25
2023-01-03T06:04:04.898Z,14.87
2023-01-03T06:06:31.870Z,14.82
2023-01-03T06:08:59.991Z,14.35
2023-01-03T06:11:27.381Z,14.38
2023-01-03T06:13:54.369Z,13.57
2023-01-03T06:16:42.939Z,14.17
2023-01-03T06:19:09.995Z,13.27
2023-01-03T06:21:37.439Z,12.25
2023-01-03T06:24:05.287Z,13.10
2023-01-03T06:26:32.440Z,13.30
2023-01-03T06:29:00.270Z,12.53
2023-01-03T06:31:27.316Z,14.35
2023-01-03T06:33:54.701Z,12.82
2023-01-03T06:36:23.426Z,13.57
2023-01-03T06:38:50.324Z,12.55
2023-01-03T06:41:17.697Z,13.53
2023-01-03T06:43:44.963Z,12.65
2023-01-03T06:46:32.392Z,13.23
2023-01-03T06:49:18.546Z,17.20
2023-01-03T06:52:06.405Z,16.65
2023-01-03T06:54:36.376Z,15.03
2023-01-03T06:57:04.046Z,14.35
2023-01-03T06:59:31.068Z,14.40
2023-01-03T07:01:58.151Z,15.05
2023-01-03T07:04:25.851Z,15.65
2023-01-03T07:06:52.803Z,15.67
2023-01-03T07:09:19.796Z,13.52
2023-01-03T07:11:46.749Z,12.52
2023-01-03T07:14:13.742Z,13.13
2023-01-03T07:16:43.412Z,13.07
2023-01-03T07:19:19.841Z,12.10
2023-01-03T07:21:46.893Z,12.37
2023-01-03T07:24:16.142Z,11.73
2023-01-03T07:26:42.983Z,11.45
2023-01-03T07:29:10.734Z,11.55
2023-01-03T07:31:41.654Z,10.50
2023-01-03T07:34:09.625Z,10.75
2023-01-03T07:36:37.252Z,11.30
2023-01-03T07:39:04.504Z,11.10
2023-01-03T07:41:50.268Z,10.60
2023-01-03T07:44:17.277Z,11.13
2023-01-03T07:46:44.271Z,11.55
2023-01-03T07:49:12.344Z,12.65
2023-01-03T07:51:39.685Z,11.55
2023-01-03T07:54:07.651Z,11.95
2023-01-03T07:56:34.964Z,11.37
2023-01-03T07:59:02.921Z,12.05
2023-01-03T08:01:30.734Z,12.45
2023-01-03T08:03:58.231Z,14.40
2023-01-03T08:06:25.669Z,13.38
2023-01-03T08:09:11.994Z,11.90
2023-01-03T08:11:58.680Z,12.77
2023-01-03T08:14:27.169Z,12.13
2023-01-03T08:16:57.495Z,13.23
2023-01-03T08:19:24.909Z,14.23
2023-01-03T08:21:52.155Z,12.87
2023-01-03T08:24:19.094Z,11.68
2023-01-03T08:26:46.016Z,11.05
2023-01-03T08:29:13.238Z,11.32
2023-01-03T08:31:47.436Z,11.48
2023-01-03T08:34:19.726Z,11.23
2023-01-03T08:37:07.273Z,12.07
2023-01-03T08:39:39.222Z,10.93
2023-01-03T08:42:08.561Z,10.80
2023-01-03T08:44:36.563Z,12.48
2023-01-03T08:47:08.105Z,11.80
2023-01-03T08:49:36.576Z,11.98
2023-01-03T08:52:04.311Z,12.27
2023-01-03T08:54:31.547Z,12.48
2023-01-03T08:56:58.564Z,12.95
2023-01-03T08:59:25.421Z,13.17
2023-01-03T09:01:52.578Z,15.07
2023-01-03T09:04:19.825Z,15.55
2023-01-03T09:06:46.738Z,13.88
2023-01-03T09:09:13.642Z,13.85
2023-01-03T09:11:40.581Z,13.87
2023-01-03T09:14:07.444Z,14.38
2023-01-03T09:16:34.415Z,13.35
2023-01-03T09:19:02.700Z,12.85
2023-01-03T09:21:29.869Z,13.70
2023-01-03T09:23:58.746Z,12.87
2023-01-03T09:26:25.735Z,12.98
2023-01-03T09:28:52.819Z,11.57
2023-01-03T09:31:20.013Z,13.15
2023-01-03T09:33:46.967Z,11.45
2023-01-03T09:36:13.991Z,9.73
2023-01-03T09:38:41.023Z,9.80
2023-01-03T09:41:15.177Z,10.00
2023-01-03T09:43:46.712Z,9.23
2023-01-03T09:46:22.721Z,9.57
2023-01-03T09:48:51.216Z,9.20
2023-01-03T09:51:50.410Z,10.15
2023-01-03T09:54:44.118Z,8.57
2023-01-03T09:57:53.644Z,8.45
2023-01-03T10:01:06.525Z,9.52
2023-01-03T10:03:53.932Z,7.83
2023-01-03T10:06:23.579Z,8.15
2023-01-03T10:09:11.917Z,8.65
2023-01-03T10:11:54.536Z,8.45
2023-01-03T10:15:16.029Z,8.50
2023-01-03T10:18:03.258Z,7.70
2023-01-03T10:20:35.854Z,7.82
2023-01-03T10:23:06.587Z,8.40
2023-01-03T10:25:33.718Z,8.50
2023-01-03T10:28:11.942Z,8.60
2023-01-03T10:31:07.814Z,9.43
2023-01-03T10:33:39.077Z,8.55
2023-01-03T10:36:08.010Z,9.20
2023-01-03T10:38:43.619Z,9.45
2023-01-03T10:41:30.402Z,8.98
2023-01-03T10:44:00.125Z,9.07
2023-01-03T10:46:28.380Z,9.55
2023-01-03T10:49:26.460Z,9.25
2023-01-03T10:51:47.585Z,9.57
2023-01-03T10:54:17.817Z,9.30
2023-01-03T10:56:46.647Z,8.87
2023-01-03T10:59:32.649Z,9.05
2023-01-03T11:02:01.650Z,8.80
2023-01-03T11:04:31.118Z,8.90
2023-01-03T11:07:12.232Z,9.27
2023-01-03T11:09:53.600Z,8.70
2023-01-03T11:12:38.785Z,9.30
2023-01-03T11:15:15.441Z,9.90
2023-01-03T11:18:02.792Z,8.57
2023-01-03T11:20:46.200Z,8.98
2023-01-03T11:23:21.985Z,8.97
2023-01-03T11:26:00.725Z,9.07
2023-01-03T11:28:49.327Z,10.90
2023-01-03T11:31:35.173Z,10.88
2023-01-03T11:34:04.925Z,9.60
2023-01-03T11:36:50.204Z,10.17
2023-01-03T11:39:40.135Z,9.80
2023-01-03T11:42:12.837Z,8.88
2023-01-03T11:44:49.807Z,9.18
2023-01-03T11:47:19.566Z,9.23
2023-01-03T11:50:19.972Z,9.07
2023-01-03T11:53:04.246Z,9.07
2023-01-03T11:55:49.979Z,8.77
2023-01-03T11:58:35.054Z,9.40
2023-01-03T12:01:25.346Z,9.05
2023-01-03T12:04:17.607Z,8.43
2023-01-03T12:07:14.545Z,8.80
2023-01-03T12:10:16.567Z,8.52
2023-01-03T12:13:01.820Z,8.40
2023-01-03T12:15:49.179Z,8.90
2023-01-03T12:18:28.966Z,8.17
2023-01-03T12:21:05.759Z,7.37
2023-01-03T12:23:41.004Z,8.73
2023-01-03T12:26:12.480Z,7.75
2023-01-03T12:28:47.186Z,7.40
2023-01-03T12:31:27.909Z,6.87
2023-01-03T12:34:19.094Z,6.60
2023-01-03T12:37:10.122Z,7.20
2023-01-03T12:39:43.033Z,7.05
2023-01-03T12:42:27.450Z,6.87
2023-01-03T12:45:00.556Z,6.40
2023-01-03T12:47:54.766Z,5.95
2023-01-03T12:50:36.202Z,6.40
2023-01-03T12:53:16.258Z,5.85
2023-01-03T12:55:51.089Z,6.28
2023-01-03T12:58:39.801Z,6.60
2023-01-03T13:01:18.062Z,6.40
2023-01-03T13:03:54.622Z,7.78
2023-01-03T13:06:32.723Z,7.72
2023-01-03T13:09:04.432Z,6.60
2023-01-03T13:11:51.577Z,7.17
2023-01-03T13:14:28.266Z,7.45
2023-01-03T13:17:07.096Z,7.57
2023-01-03T13:19:36.976Z,6.72
2023-01-03T13:22:26.974Z,6.72
2023-01-03T13:24:54.412Z,6.67
2023-01-03T13:27:33.676Z,6.85
2023-01-03T13:30:22.509Z,6.75
2023-01-03T13:33:03.680Z,6.70
2023-01-03T13:36:01.040Z,7.25
2023-01-03T13:38:32.589Z,7.77
2023-01-03T13:41:18.901Z,7.90
2023-01-03T13:43:52.533Z,8.10
2023-01-03T13:46:31.148Z,8.75
2023-01-03T13:49:01.822Z,8.80
2023-01-03T13:51:45.701Z,7.80
2023-01-03T13:54:12.675Z,7.90
2023-01-03T13:56:45.104Z,9.00
2023-01-03T13:59:14.625Z,8.50
2023-01-03T14:02:07.291Z,8.45
2023-01-03T14:04:36.986Z,8.90
2023-01-03T14:07:41.568Z,8.25
2023-01-03T14:10:47.889Z,8.55
2023-01-03T14:13:21.044Z,8.07
2023-01-03T14:15:49.430Z,8.00
2023-01-03T14:18:26.293Z,8.37
2023-01-03T14:20:56.058Z,8.07
2023-01-03T14:23:58.511Z,8.50
2023-01-03T14:26:17.981Z,8.13
2023-01-03T14:28:57.446Z,10.23
2023-01-03T14:31:27.616Z,14.17
2023-01-03T14:34:03.560Z,13.73
2023-01-03T14:36:30.518Z,11.98
2023-01-03T14:39:00.188Z,9.48
2023-01-03T14:41:37.581Z,9.50
2023-01-03T14:44:07.317Z,8.70
2023-01-03T14:46:36.072Z,8.68
2023-01-03T14:49:07.209Z,10.50
2023-01-03T14:51:37.975Z,10.43
2023-01-03T14:54:05.410Z,11.05
2023-01-03T14:56:32.827Z,10.67
2023-01-03T14:59:00.895Z,10.18
2023-01-03T15:01:28.956Z,10.73
2023-01-03T15:03:56.464Z,10.63
2023-01-03T15:06:32.301Z,10.90
2023-01-03T15:09:01.840Z,16.37
2023-01-03T15:11:56.395Z,14.38
2023-01-03T15:14:34.586Z,13.85
2023-01-03T15:17:10.604Z,14.38
2023-01-03T15:19:40.693Z,12.90
2023-01-03T15:22:14.471Z,12.43
2023-01-03T15:24:46.364Z,12.65
2023-01-03T15:27:52.014Z,14.00
2023-01-03T15:30:27.584Z,13.15
2023-01-03T15:33:05.136Z,14.68
2023-01-03T15:35:41.097Z,14.43
2023-01-03T15:38:37.811Z,13.50
2023-01-03T15:41:38.558Z,15.27
2023-01-03T15:44:07.372Z,14.05
2023-01-03T15:46:34.605Z,17.80
2023-01-03T15:49:05.460Z,17.37
2023-01-03T15:51:32.346Z,18.37
2023-01-03T15:54:01.791Z,16.15
2023-01-03T15:56:35.071Z,15.38
2023-01-03T15:59:07.076Z,14.63
2023-01-03T16:01:34.262Z,15.83
2023-01-03T16:04:04.086Z,14.38
2023-01-03T16:06:31.021Z,15.90
2023-01-03T16:08:57.997Z,15.88
2023-01-03T16:11:34.392Z,14.87
2023-01-03T16:14:07.704Z,15.67
2023-01-03T16:16:39.713Z,14.80
2023-01-03T16:19:07.781Z,13.85
2023-01-03T16:21:34.862Z,14.45
2023-01-03T16:24:02.867Z,17.12
2023-01-03T16:26:29.884Z,18.50
2023-01-03T16:28:57.195Z,18.58
2023-01-03T16:31:31.995Z,21.73
2023-01-03T16:33:59.497Z,18.02
2023-01-03T16:36:40.001Z,14.05
2023-01-03T16:39:20.574Z,13.80
2023-01-03T16:42:07.801Z,13.65
2023-01-03T16:44:36.853Z,15.27
2023-01-03T16:47:07.254Z,22.40
2023-01-03T16:49:35.879Z,22.17
2023-01-03T16:52:03.645Z,20.60
2023-01-03T16:54:30.781Z,20.33
2023-01-03T16:56:57.617Z,25.02
2023-01-03T16:59:24.651Z,23.15
2023-01-03T17:01:51.833Z,21.37
2023-01-03T17:04:18.833Z,20.00
2023-01-03T17:06:45.903Z,20.65
2023-01-03T17:09:20.611Z,18.95
2023-01-03T17:11:47.673Z,16.45
2023-01-03T17:14:18.924Z,14.75
2023-01-03T17:16:46.495Z,13.90
2023-01-03T17:22:18.102Z,12.52
2023-01-03T17:24:45.587Z,16.48
2023-01-03T17:27:23.885Z,19.87
2023-01-03T17:30:03.491Z,20.80
2023-01-03T17:32:31.553Z,22.42
2023-01-03T17:34:58.579Z,21.90
2023-01-03T17:37:26.067Z,22.02
2023-01-03T17:39:56.883Z,24.23
2023-01-03T17:42:25.801Z,22.57
2023-01-03T17:45:12.355Z,24.25
2023-01-03T17:48:01.519Z,26.70
2023-01-03T17:50:32.267Z,29.75
2023-01-03T17:53:02.023Z,29.05
2023-01-03T17:55:30.421Z,28.73
2023-01-03T17:58:01.438Z,30.45
2023-01-03T18:00:31.149Z,29.98
2023-01-03T18:03:00.965Z,30.70
2023-01-03T18:05:29.892Z,28.52
2023-01-03T18:08:00.365Z,27.23
2023-01-03T18:10:46.074Z,28.73
2023-01-03T18:13:37.717Z,30.95
2023-01-03T18:16:05.175Z,28.12
2023-01-03T18:18:32.925Z,25.48
2023-01-03T18:21:00.096Z,24.60
2023-01-03T18:23:36.577Z,22.92
2023-01-03T18:26:07.126Z,25.70
2023-01-03T18:28:34.389Z,26.00
2023-01-03T18:31:01.576Z,27.20
2023-01-03T18:33:28.575Z,28.53
2023-01-03T18:35:55.959Z,27.65
2023-01-03T18:38:27.724Z,26.62
2023-01-03T18:41:02.468Z,26.17
2023-01-03T18:43:33.023Z,25.70
2023-01-03T18:46:00.191Z,25.60
2023-01-03T18:48:27.767Z,29.55
2023-01-03T18:50:59.476Z,27.42
2023-01-03T18:53:31.438Z,30.20
2023-01-03T18:56:00.250Z,33.63
2023-01-03T18:58:40.853Z,39.53
2023-01-03T19:01:07.882Z,33.38
2023-01-03T19:03:35.926Z,27.33
2023-01-03T19:06:11.691Z,35.90
2023-01-03T19:08:38.760Z,35.88
2023-01-03T19:11:11.258Z,33.20
2023-01-03T19:13:51.995Z,30.33
2023-01-03T19:16:20.968Z,27.73
2023-01-03T19:18:48.423Z,28.50
2023-01-03T19:21:16.516Z,29.08
2023-01-03T19:23:46.390Z,30.43
2023-01-03T19:26:34.563Z,32.80
2023-01-03T19:29:08.287Z,31.23
2023-01-03T19:31:42.939Z,30.40
2023-01-03T19:34:18.392Z,30.23
2023-01-03T19:36:46.961Z,30.53
2023-01-03T19:39:14.834Z,30.35
2023-01-03T19:42:19.434Z,31.08
2023-01-03T19:44:48.686Z,31.30
2023-01-03T19:47:18.128Z,31.27
2023-01-03T19:49:50.355Z,28.63
2023-01-03T19:52:20.498Z,31.27
2023-01-03T19:54:48.077Z,30.27
2023-01-03T19:57:24.189Z,28.15
2023-01-03T20:00:02.330Z,25.25
2023-01-03T20:02:35.809Z,24.70
2023-01-03T20:05:07.089Z,23.12
2023-01-03T20:07:35.212Z,22.35
2023-01-03T20:10:05.288Z,16.58
2023-01-03T20:12:35.199Z,20.98
2023-01-03T20:15:07.293Z,18.70
2023-01-03T20:17:34.857Z,19.08
2023-01-03T20:20:06.368Z,20.95
2023-01-03T20:23:04.055Z,19.73
2023-01-03T20:25:31.370Z,19.75
2023-01-03T20:28:01.183Z,20.20
2023-01-03T20:30:30.912Z,19.40
2023-01-03T20:32:58.784Z,21.55
2023-01-03T20:38:24.719Z,24.27
2023-01-03T20:40:53.741Z,25.93
2023-01-03T20:43:22.724Z,21.98
2023-01-03T20:45:59.967Z,20.80
2023-01-03T20:48:27.170Z,21.37
2023-01-03T20:50:55.619Z,21.85
2023-01-03T20:53:25.643Z,23.33
2023-01-03T20:55:53.471Z,24.50
2023-01-03T20:58:28.141Z,24.63
2023-01-03T21:01:04.270Z,23.87
2023-01-03T21:03:33.794Z,22.17
2023-01-03T21:06:01.494Z,21.53
2023-01-03T21:08:47.516Z,21.92
2023-01-03T21:11:15.813Z,22.10
2023-01-03T21:13:43.895Z,21.80
2023-01-03T21:16:25.761Z,21.75
2023-01-03T21:18:53.094Z,20.77
2023-01-03T21:21:23.407Z,19.42
2023-01-03T21:23:54.878Z,20.23
2023-01-03T21:26:22.526Z,19.77
2023-01-03T21:28:49.881Z,18.77
2023-01-03T21:31:22.479Z,12.80
2023-01-03T21:33:52.895Z,9.85
2023-01-03T21:36:38.393Z,7.50
2023-01-03T21:39:05.981Z,6.12
2023-01-03T21:41:35.360Z,5.15
2023-01-03T21:44:04.164Z,4.80
2023-01-03T21:46:32.026Z,5.03
2023-01-03T21:49:00.302Z,4.78
2023-01-03T21:51:37.888Z,4.28
2023-01-03T21:54:07.608Z,4.80
2023-01-03T21:56:37.767Z,4.60
2023-01-03T21:59:04.659Z,4.97
2023-01-03T22:01:51.541Z,4.75
2023-01-03T22:04:19.631Z,4.70
2023-01-03T22:06:46.880Z,4.65
2023-01-03T22:09:33.721Z,4.37
2023-01-03T22:12:00.594Z,4.60
2023-01-03T22:14:27.485Z,3.15
2023-01-03T22:16:54.417Z,3.08
2023-01-03T22:19:21.509Z,3.10
2023-01-03T22:21:48.394Z,2.80
2023-01-03T22:24:15.363Z,2.47
2023-01-03T22:26:42.205Z,2.65
2023-01-03T22:29:09.045Z,2.75
2023-01-03T22:31:35.940Z,2.53
2023-01-03T22:34:03.841Z,2.47
2023-01-03T22:36:30.679Z,2.85
2023-01-03T22:38:57.541Z,2.85
2023-01-03T22:41:24.406Z,2.50
2023-01-03T22:43:52.685Z,3.12
2023-01-03T22:46:21.085Z,2.67
2023-01-03T22:48:47.946Z,2.35
2023-01-03T22:51:15.936Z,2.00
2023-01-03T22:53:44.858Z,1.95
2023-01-03T22:56:16.951Z,1.92
2023-01-03T22:58:45.393Z,1.87
2023-01-03T23:01:18.090Z,2.30
2023-01-03T23:03:47.194Z,2.08
2023-01-03T23:06:16.575Z,1.98
2023-01-03T23:08:44.028Z,1.90
2023-01-03T23:11:38.282Z,1.90
2023-01-03T23:14:08.783Z,2.67
2023-01-03T23:16:35.720Z,1.95
2023-01-03T23:19:04.669Z,1.90
2023-01-03T23:21:32.163Z,2.20
2023-01-03T23:23:59.204Z,1.93
2023-01-03T23:26:26.466Z,2.20
2023-01-03T23:28:57.684Z,2.30
2023-01-03T23:31:26.411Z,1.83
2023-01-03T23:33:57.715Z,1.90
2023-01-03T23:36:24.872Z,1.77
2023-01-03T23:38:52.901Z,2.40
2023-01-03T23:41:19.982Z,2.30
2023-01-03T23:43:47.221Z,2.40
2023-01-03T23:46:16.420Z,2.50
2023-01-03T23:48:48.476Z,2.33
2023-01-03T23:51:15.492Z,2.28
2023-01-03T23:53:43.612Z,2.45
2023-01-03T23:56:15.774Z,2.20
2023-01-03T23:58:42.981Z,2.30
